createdAt,value
2019-03-31T00:01:56.783Z,54.87
2019-03-31T00:04:27.949Z,56.57
2019-03-31T00:06:59.079Z,55.03
2019-03-31T00:09:30.293Z,53.87
2019-03-31T00:12:02.045Z,54.40
2019-03-31T00:14:33.067Z,50.97
2019-03-31T00:17:04.428Z,51.07
2019-03-31T00:19:35.362Z,49.17
2019-03-31T00:22:06.509Z,51.93
2019-03-31T00:24:37.474Z,51.23
2019-03-31T00:27:08.602Z,51.13
2019-03-31T00:29:39.852Z,52.03
2019-03-31T00:32:10.859Z,53.03
2019-03-31T00:34:42.082Z,55.70
2019-03-31T00:37:16.109Z,50.67
2019-03-31T00:39:47.150Z,52.43
2019-03-31T00:42:18.659Z,50.43
2019-03-31T00:44:49.655Z,54.10
2019-03-31T00:47:20.724Z,51.20
2019-03-31T00:49:51.950Z,51.50
2019-03-31T00:52:23.004Z,50.60
2019-03-31T00:54:54.310Z,49.47
2019-03-31T00:57:25.397Z,52.37
2019-03-31T00:59:56.499Z,55.53
2019-03-31T01:02:31.939Z,53.63
2019-03-31T01:05:03.913Z,53.60
2019-03-31T01:07:36.431Z,47.43
2019-03-31T01:10:08.090Z,47.40
2019-03-31T01:12:39.947Z,47.67
2019-03-31T01:15:16.010Z,49.37
2019-03-31T01:17:49.168Z,51.40
2019-03-31T01:20:21.470Z,48.23
2019-03-31T01:22:52.611Z,53.53
2019-03-31T01:25:24.234Z,50.47
2019-03-31T01:27:56.064Z,47.93
2019-03-31T01:30:27.436Z,47.60
2019-03-31T01:32:59.812Z,49.93
2019-03-31T01:35:31.294Z,49.10
2019-03-31T01:38:03.699Z,46.80
2019-03-31T01:40:35.228Z,48.23
2019-03-31T01:43:06.466Z,47.87
2019-03-31T01:45:37.758Z,47.67
2019-03-31T01:48:09.108Z,48.30
2019-03-31T01:50:40.333Z,47.20
2019-03-31T01:53:12.398Z,45.47
2019-03-31T01:55:43.555Z,47.47
2019-03-31T01:58:15.316Z,53.00
2019-03-31T02:00:53.002Z,50.67
2019-03-31T02:03:24.720Z,47.10
2019-03-31T02:05:56.230Z,47.77
2019-03-31T02:08:27.653Z,46.57
2019-03-31T02:10:58.650Z,44.40
2019-03-31T02:13:29.910Z,47.67
2019-03-31T02:16:01.650Z,45.93
2019-03-31T02:18:32.975Z,47.63
2019-03-31T02:21:05.436Z,44.87
2019-03-31T02:23:36.470Z,50.23
2019-03-31T02:26:07.498Z,46.80
2019-03-31T02:28:38.644Z,46.13
2019-03-31T02:31:09.715Z,43.27
2019-03-31T02:33:40.838Z,45.93
2019-03-31T02:36:12.041Z,45.53
2019-03-31T02:38:43.122Z,44.63
2019-03-31T02:41:14.393Z,47.70
2019-03-31T02:43:46.066Z,48.93
2019-03-31T02:46:17.005Z,44.33
2019-03-31T02:48:48.085Z,44.10
2019-03-31T02:51:20.354Z,43.57
2019-03-31T02:53:51.525Z,46.70
2019-03-31T02:56:24.996Z,47.50
2019-03-31T02:58:58.480Z,48.43
2019-03-31T03:01:30.758Z,48.07
2019-03-31T03:04:07.951Z,44.23
2019-03-31T03:06:39.728Z,47.63
2019-03-31T03:09:10.972Z,46.80
2019-03-31T03:11:44.528Z,44.03
2019-03-31T03:14:17.561Z,46.70
2019-03-31T03:16:48.889Z,48.03
2019-03-31T03:19:20.338Z,48.07
2019-03-31T03:21:51.594Z,47.70
2019-03-31T03:24:22.829Z,48.37
2019-03-31T03:26:54.263Z,45.87
2019-03-31T03:29:25.370Z,47.77
2019-03-31T03:31:56.361Z,49.23
2019-03-31T03:34:27.395Z,47.87
2019-03-31T03:36:58.581Z,49.73
2019-03-31T03:39:29.831Z,50.17
2019-03-31T03:42:02.481Z,47.67
2019-03-31T03:44:34.276Z,49.30
2019-03-31T03:47:05.762Z,48.00
2019-03-31T03:49:36.658Z,48.10
2019-03-31T03:52:07.600Z,49.20
2019-03-31T03:54:38.616Z,53.73
2019-03-31T03:57:10.016Z,58.43
2019-03-31T03:59:42.841Z,47.40
2019-03-31T04:02:15.034Z,50.70
2019-03-31T04:04:46.210Z,51.10
2019-03-31T04:07:17.418Z,49.07
2019-03-31T04:09:48.643Z,53.37
2019-03-31T04:12:19.810Z,52.03
2019-03-31T04:14:50.863Z,52.40
2019-03-31T04:17:22.054Z,51.93
2019-03-31T04:19:53.266Z,51.77
2019-03-31T04:22:24.292Z,54.50
2019-03-31T04:24:55.449Z,55.43
2019-03-31T04:27:26.428Z,52.67
2019-03-31T04:29:57.378Z,52.47
2019-03-31T04:32:29.573Z,47.43
2019-03-31T04:35:00.610Z,50.27
2019-03-31T04:37:31.990Z,49.03
2019-03-31T04:40:03.008Z,50.30
2019-03-31T04:42:34.815Z,53.30
2019-03-31T04:45:07.652Z,48.73
2019-03-31T04:47:39.023Z,50.07
2019-03-31T04:50:11.651Z,48.47
2019-03-31T04:52:42.726Z,51.87
2019-03-31T04:55:13.878Z,54.40
2019-03-31T04:57:46.842Z,55.20
2019-03-31T05:00:18.442Z,49.43
2019-03-31T05:02:50.082Z,49.97
2019-03-31T05:05:21.150Z,51.17
2019-03-31T05:07:52.392Z,52.37
2019-03-31T05:10:23.681Z,51.07
2019-03-31T05:12:55.044Z,46.60
2019-03-31T05:15:26.106Z,49.37
2019-03-31T05:17:57.413Z,49.77
2019-03-31T05:20:28.404Z,47.03
2019-03-31T05:23:01.171Z,45.80
2019-03-31T05:25:32.390Z,46.33
2019-03-31T05:28:03.805Z,45.80
2019-03-31T05:30:35.284Z,47.53
2019-03-31T05:33:06.738Z,51.23
2019-03-31T05:35:37.814Z,46.07
2019-03-31T05:38:08.889Z,43.57
2019-03-31T05:40:40.061Z,46.60
2019-03-31T05:43:13.502Z,45.37
2019-03-31T05:45:44.540Z,44.63
2019-03-31T05:48:16.274Z,46.67
2019-03-31T05:50:47.316Z,45.13
2019-03-31T05:53:18.309Z,43.43
2019-03-31T05:55:49.491Z,47.97
2019-03-31T05:58:20.536Z,45.23
2019-03-31T06:00:53.871Z,46.07
2019-03-31T06:03:25.630Z,47.40
2019-03-31T06:05:56.846Z,42.57
2019-03-31T06:08:27.988Z,43.27
2019-03-31T06:10:59.162Z,43.63
2019-03-31T06:13:30.232Z,44.43
2019-03-31T06:16:01.610Z,43.87
2019-03-31T06:18:32.764Z,45.50
2019-03-31T06:21:04.220Z,41.37
2019-03-31T06:23:35.314Z,45.60
2019-03-31T06:26:06.548Z,44.40
2019-03-31T06:28:37.894Z,43.13
2019-03-31T06:31:08.994Z,43.93
2019-03-31T06:33:40.034Z,43.43
2019-03-31T06:36:11.227Z,39.43
2019-03-31T06:38:42.191Z,43.03
2019-03-31T06:41:13.192Z,42.00
2019-03-31T06:43:45.379Z,40.30
2019-03-31T06:46:16.934Z,43.67
2019-03-31T06:48:47.910Z,40.10
2019-03-31T06:51:19.076Z,39.40
2019-03-31T06:53:50.142Z,39.77
2019-03-31T06:56:22.409Z,41.30
2019-03-31T06:58:53.510Z,40.67
2019-03-31T07:01:24.767Z,37.77
2019-03-31T07:03:56.114Z,43.97
2019-03-31T07:06:27.174Z,37.97
2019-03-31T07:08:58.213Z,35.70
2019-03-31T07:11:29.373Z,35.83
2019-03-31T07:14:00.413Z,35.57
2019-03-31T07:16:31.644Z,34.30
2019-03-31T07:19:02.686Z,38.30
2019-03-31T07:21:33.834Z,36.00
2019-03-31T07:24:04.764Z,36.17
2019-03-31T07:26:36.106Z,36.60
2019-03-31T07:29:07.144Z,33.40
2019-03-31T07:31:38.215Z,35.17
2019-03-31T07:34:09.306Z,33.70
2019-03-31T07:36:41.174Z,34.23
2019-03-31T07:39:12.446Z,34.85
2019-03-31T07:41:43.742Z,32.85
2019-03-31T07:44:15.480Z,37.23
2019-03-31T07:46:46.636Z,34.50
2019-03-31T07:49:17.718Z,35.68
2019-03-31T07:51:48.839Z,33.58
2019-03-31T07:54:19.890Z,32.08
2019-03-31T07:56:51.006Z,33.05
2019-03-31T07:59:23.747Z,31.02
2019-03-31T08:01:54.813Z,32.28
2019-03-31T08:04:25.951Z,32.08
2019-03-31T08:06:57.101Z,31.87
2019-03-31T08:09:28.314Z,33.58
2019-03-31T08:11:59.999Z,33.83
2019-03-31T08:14:30.980Z,30.15
2019-03-31T08:17:01.980Z,30.27
2019-03-31T08:19:32.987Z,34.18
2019-03-31T08:22:04.110Z,41.55
2019-03-31T08:24:44.393Z,32.63
2019-03-31T08:27:16.358Z,35.10
2019-03-31T08:29:55.632Z,32.83
2019-03-31T08:32:20.352Z,31.95
2019-03-31T08:34:51.539Z,33.08
2019-03-31T08:37:24.649Z,34.25
2019-03-31T08:39:55.766Z,37.80
2019-03-31T08:42:28.478Z,33.45
2019-03-31T08:44:59.607Z,45.85
2019-03-31T08:47:30.792Z,38.05
2019-03-31T08:50:02.730Z,31.05
2019-03-31T08:52:34.362Z,40.35
2019-03-31T08:55:06.019Z,33.00
2019-03-31T08:57:37.122Z,30.60
2019-03-31T09:00:16.316Z,28.80
2019-03-31T09:02:48.446Z,30.97
2019-03-31T09:05:19.603Z,30.68
2019-03-31T09:07:51.043Z,31.52
2019-03-31T09:10:22.257Z,30.65
2019-03-31T09:12:53.762Z,31.85
2019-03-31T09:15:26.315Z,31.07
2019-03-31T09:17:57.485Z,30.97
2019-03-31T09:20:28.822Z,32.50
2019-03-31T09:23:00.666Z,36.17
2019-03-31T09:25:31.768Z,27.45
2019-03-31T09:28:03.261Z,36.42
2019-03-31T09:30:35.542Z,28.87
2019-03-31T09:33:09.127Z,28.17
2019-03-31T09:35:40.214Z,31.37
2019-03-31T09:38:11.343Z,29.70
2019-03-31T09:40:42.838Z,35.15
2019-03-31T09:43:13.884Z,32.70
2019-03-31T09:45:44.887Z,31.07
2019-03-31T09:48:15.904Z,28.20
2019-03-31T09:50:47.041Z,27.75
2019-03-31T09:53:18.042Z,32.78
2019-03-31T09:55:49.290Z,28.55
2019-03-31T09:58:20.533Z,33.35
2019-03-31T10:00:52.702Z,31.75
2019-03-31T10:03:26.008Z,29.02
2019-03-31T10:06:10.130Z,29.52
2019-03-31T10:08:30.607Z,34.23
2019-03-31T10:11:02.951Z,33.48
2019-03-31T10:13:35.899Z,32.78
2019-03-31T10:16:07.041Z,28.10
2019-03-31T10:18:38.364Z,28.17
2019-03-31T10:21:09.549Z,28.92
2019-03-31T10:23:41.095Z,36.48
2019-03-31T10:26:16.066Z,27.70
2019-03-31T10:28:46.829Z,28.17
2019-03-31T10:31:18.006Z,35.68
2019-03-31T10:33:53.673Z,31.62
2019-03-31T10:36:27.760Z,33.42
2019-03-31T10:38:59.475Z,31.90
2019-03-31T10:41:32.639Z,32.73
2019-03-31T10:44:04.196Z,35.17
2019-03-31T10:46:35.575Z,30.88
2019-03-31T10:49:06.834Z,31.77
2019-03-31T10:51:37.838Z,31.12
2019-03-31T10:54:09.124Z,29.50
2019-03-31T10:56:41.692Z,29.40
2019-03-31T10:59:12.907Z,27.65
2019-03-31T11:01:44.653Z,27.52
2019-03-31T11:04:16.147Z,30.10
2019-03-31T11:06:58.405Z,28.98
2019-03-31T11:09:20.201Z,30.55
2019-03-31T11:11:51.864Z,32.42
2019-03-31T11:14:23.224Z,29.80
2019-03-31T11:16:54.639Z,28.20
2019-03-31T11:19:26.107Z,32.55
2019-03-31T11:22:10.608Z,34.43
2019-03-31T11:24:41.693Z,29.95
2019-03-31T11:27:13.373Z,30.08
2019-03-31T11:29:44.641Z,28.38
2019-03-31T11:32:15.777Z,29.10
2019-03-31T11:34:46.869Z,29.45
2019-03-31T11:37:20.239Z,27.50
2019-03-31T11:39:51.339Z,37.50
2019-03-31T11:42:22.314Z,34.20
2019-03-31T11:44:53.701Z,31.10
2019-03-31T11:47:25.867Z,35.83
2019-03-31T11:49:56.864Z,36.42
2019-03-31T11:52:28.463Z,46.00
2019-03-31T11:54:59.685Z,34.33
2019-03-31T11:57:30.843Z,35.45
2019-03-31T12:00:02.151Z,37.08
2019-03-31T12:02:34.645Z,30.10
2019-03-31T12:05:06.418Z,29.60
2019-03-31T12:07:46.673Z,29.05
2019-03-31T12:10:13.350Z,28.77
2019-03-31T12:12:44.596Z,41.77
2019-03-31T12:15:16.257Z,41.65
2019-03-31T12:17:47.701Z,37.40
2019-03-31T12:20:19.337Z,41.40
2019-03-31T12:22:50.499Z,34.45
2019-03-31T12:25:23.131Z,33.15
2019-03-31T12:27:54.169Z,31.80
2019-03-31T12:30:31.457Z,33.38
2019-03-31T12:33:02.520Z,34.05
2019-03-31T12:35:33.619Z,28.42
2019-03-31T12:38:05.186Z,29.82
2019-03-31T12:40:41.793Z,28.52
2019-03-31T12:43:12.871Z,32.45
2019-03-31T12:45:44.052Z,29.92
2019-03-31T12:48:16.871Z,34.73
2019-03-31T12:50:52.141Z,27.65
2019-03-31T12:53:24.039Z,27.95
2019-03-31T12:56:00.291Z,36.20
2019-03-31T12:58:28.330Z,39.83
2019-03-31T13:00:59.907Z,33.20
2019-03-31T13:03:33.300Z,28.70
2019-03-31T13:06:04.574Z,31.37
2019-03-31T13:08:36.141Z,25.02
2019-03-31T13:11:08.901Z,31.65
2019-03-31T13:13:40.019Z,28.57
2019-03-31T13:16:11.477Z,26.73
2019-03-31T13:18:42.818Z,33.85
2019-03-31T13:21:14.306Z,29.50
2019-03-31T13:23:48.140Z,44.55
2019-03-31T13:26:20.124Z,38.63
2019-03-31T13:28:52.413Z,34.97
2019-03-31T13:31:23.688Z,29.63
2019-03-31T13:33:55.447Z,29.00
2019-03-31T13:36:26.524Z,34.55
2019-03-31T13:38:57.860Z,28.95
2019-03-31T13:41:29.460Z,42.97
2019-03-31T13:44:00.507Z,26.70
2019-03-31T13:46:31.724Z,30.23
2019-03-31T13:49:02.919Z,36.27
2019-03-31T13:51:34.028Z,34.90
2019-03-31T13:54:05.119Z,25.70
2019-03-31T13:56:37.783Z,23.17
2019-03-31T13:59:09.302Z,23.50
2019-03-31T14:01:41.947Z,21.87
2019-03-31T14:04:13.001Z,24.20
2019-03-31T14:06:44.071Z,21.40
2019-03-31T14:09:15.211Z,19.57
2019-03-31T14:11:48.555Z,17.53
2019-03-31T14:14:19.067Z,20.43
2019-03-31T14:16:54.689Z,18.57
2019-03-31T14:19:25.449Z,15.67
2019-03-31T14:21:58.015Z,13.90
2019-03-31T14:24:29.213Z,16.57
2019-03-31T14:27:00.795Z,12.30
2019-03-31T14:29:32.060Z,15.97
2019-03-31T14:32:03.417Z,12.53
2019-03-31T14:34:34.700Z,14.17
2019-03-31T14:37:05.816Z,13.10
2019-03-31T14:39:37.237Z,14.70
2019-03-31T14:42:10.031Z,13.73
2019-03-31T14:44:41.375Z,16.47
2019-03-31T14:47:12.613Z,14.33
2019-03-31T14:49:44.022Z,15.77
2019-03-31T14:52:27.234Z,16.40
2019-03-31T14:54:49.351Z,17.00
2019-03-31T14:57:24.251Z,15.27
2019-03-31T14:59:55.293Z,12.90
2019-03-31T15:02:27.139Z,11.87
2019-03-31T15:04:59.104Z,11.90
2019-03-31T15:07:30.323Z,15.53
2019-03-31T15:10:04.288Z,13.17
2019-03-31T15:12:35.827Z,15.90
2019-03-31T15:15:07.129Z,13.57
2019-03-31T15:17:38.295Z,14.50
2019-03-31T15:20:10.150Z,13.90
2019-03-31T15:22:42.810Z,11.50
2019-03-31T15:25:14.123Z,10.67
2019-03-31T15:27:45.110Z,9.33
2019-03-31T15:30:16.543Z,12.83
2019-03-31T15:32:47.532Z,9.27
2019-03-31T15:35:19.360Z,10.10
2019-03-31T15:37:50.428Z,8.57
2019-03-31T15:40:22.911Z,7.80
2019-03-31T15:42:55.607Z,10.33
2019-03-31T15:45:27.053Z,9.17
2019-03-31T15:47:58.617Z,6.80
2019-03-31T15:50:29.691Z,7.63
2019-03-31T15:53:01.153Z,7.87
2019-03-31T15:55:33.556Z,8.30
2019-03-31T15:58:05.597Z,5.87
2019-03-31T16:00:36.555Z,6.43
2019-03-31T16:03:07.806Z,5.57
2019-03-31T16:05:38.887Z,6.57
2019-03-31T16:08:09.733Z,5.47
2019-03-31T16:10:40.433Z,5.33
2019-03-31T16:13:11.272Z,5.27
2019-03-31T16:15:41.969Z,5.07
2019-03-31T16:18:12.993Z,6.53
2019-03-31T16:20:43.586Z,5.13
2019-03-31T16:23:14.317Z,7.40
2019-03-31T16:25:49.266Z,6.60
2019-03-31T16:28:20.393Z,12.00
2019-03-31T16:30:51.781Z,6.73
2019-03-31T16:33:22.127Z,5.40
2019-03-31T16:35:52.747Z,5.53
2019-03-31T16:38:25.918Z,5.03
2019-03-31T16:40:56.559Z,4.97
2019-03-31T16:43:27.244Z,4.90
2019-03-31T16:45:58.321Z,4.67
2019-03-31T16:48:28.719Z,4.37
2019-03-31T16:50:59.345Z,5.57
2019-03-31T16:53:29.813Z,5.70
2019-03-31T16:56:01.486Z,5.80
2019-03-31T16:58:32.326Z,4.77
2019-03-31T17:01:03.020Z,5.60
2019-03-31T17:03:33.681Z,5.27
2019-03-31T17:06:05.370Z,5.47
2019-03-31T17:08:35.922Z,5.80
2019-03-31T17:11:06.672Z,5.37
2019-03-31T17:13:37.414Z,6.77
2019-03-31T17:16:07.917Z,5.30
2019-03-31T17:18:38.313Z,5.33
2019-03-31T17:21:08.798Z,6.57
2019-03-31T17:23:39.618Z,4.77
2019-03-31T17:26:10.071Z,5.47
2019-03-31T17:28:40.727Z,4.73
2019-03-31T17:31:11.139Z,5.53
2019-03-31T17:33:41.605Z,6.87
2019-03-31T17:36:12.146Z,16.83
2019-03-31T17:38:42.891Z,6.10
2019-03-31T17:41:14.981Z,6.43
2019-03-31T17:43:46.732Z,14.60
2019-03-31T17:46:17.294Z,5.90
2019-03-31T17:48:47.827Z,5.80
2019-03-31T17:51:18.697Z,5.43
2019-03-31T17:53:49.256Z,5.10
2019-03-31T17:56:19.691Z,5.37
2019-03-31T17:58:50.150Z,5.00
2019-03-31T18:01:20.779Z,6.03
2019-03-31T18:03:51.536Z,5.57
2019-03-31T18:06:21.995Z,6.53
2019-03-31T18:08:52.661Z,4.73
2019-03-31T18:11:23.337Z,5.43
2019-03-31T18:13:53.904Z,5.27
2019-03-31T18:16:24.703Z,4.93
2019-03-31T18:18:55.854Z,4.57
2019-03-31T18:21:43.168Z,3.93
2019-03-31T18:24:13.646Z,3.50
2019-03-31T18:26:44.129Z,4.93
2019-03-31T18:29:14.780Z,5.27
2019-03-31T18:31:45.192Z,5.87
2019-03-31T18:34:15.666Z,4.50
2019-03-31T18:36:46.199Z,4.83
2019-03-31T18:39:17.434Z,4.43
2019-03-31T18:41:48.114Z,4.83
2019-03-31T18:44:20.647Z,5.27
2019-03-31T18:46:51.342Z,5.07
2019-03-31T18:49:21.775Z,5.17
2019-03-31T18:51:52.430Z,6.07
2019-03-31T18:54:37.842Z,4.87
2019-03-31T18:57:30.241Z,5.63
2019-03-31T19:00:18.393Z,5.77
2019-03-31T19:02:55.927Z,5.27
2019-03-31T19:05:45.540Z,5.17
2019-03-31T19:08:27.279Z,4.10
2019-03-31T19:11:19.628Z,5.27
2019-03-31T19:14:09.129Z,5.67
2019-03-31T19:16:49.734Z,11.20
2019-03-31T19:19:44.367Z,10.30
2019-03-31T19:22:32.663Z,5.43
2019-03-31T19:25:13.194Z,6.37
2019-03-31T19:28:07.342Z,6.25
2019-03-31T19:30:55.409Z,6.43
2019-03-31T19:34:03.823Z,6.50
2019-03-31T19:36:59.985Z,7.37
2019-03-31T19:39:52.082Z,7.70
2019-03-31T19:42:38.452Z,7.70
2019-03-31T19:45:26.920Z,7.00
2019-03-31T19:48:16.425Z,5.27
2019-03-31T19:51:04.189Z,6.63
2019-03-31T19:53:45.457Z,7.27
2019-03-31T19:56:34.791Z,6.40
2019-03-31T19:59:19.117Z,5.97
2019-03-31T20:02:08.830Z,5.33
2019-03-31T20:04:58.136Z,5.50
2019-03-31T20:07:46.980Z,5.90
2019-03-31T20:10:40.034Z,5.73
2019-03-31T20:13:28.706Z,4.77
2019-03-31T20:16:21.888Z,5.47
2019-03-31T20:19:26.473Z,3.07
2019-03-31T20:22:03.350Z,3.80
2019-03-31T20:24:55.974Z,3.47
2019-03-31T20:27:46.730Z,3.17
2019-03-31T20:30:36.362Z,3.73
2019-03-31T20:33:23.708Z,12.03
2019-03-31T20:36:22.120Z,3.10
2019-03-31T20:39:00.772Z,3.13
2019-03-31T20:41:54.760Z,3.47
2019-03-31T20:44:25.360Z,3.47
2019-03-31T20:46:55.852Z,4.90
2019-03-31T20:49:26.575Z,2.87
2019-03-31T20:51:58.194Z,3.10
2019-03-31T20:54:28.786Z,8.87
2019-03-31T20:56:59.300Z,3.63
2019-03-31T20:59:30.009Z,2.90
2019-03-31T21:02:01.138Z,3.50
2019-03-31T21:04:31.572Z,3.10
2019-03-31T21:07:02.153Z,2.80
2019-03-31T21:09:44.296Z,28.97
2019-03-31T21:12:04.846Z,4.83
2019-03-31T21:14:35.325Z,2.93
2019-03-31T21:17:05.915Z,4.47
2019-03-31T21:19:36.414Z,3.63
2019-03-31T21:22:06.738Z,5.50
2019-03-31T21:24:37.195Z,3.33
2019-03-31T21:27:07.866Z,3.97
2019-03-31T21:29:38.333Z,5.17
2019-03-31T21:32:09.450Z,4.10
2019-03-31T21:34:39.797Z,10.07
2019-03-31T21:37:10.212Z,6.00
2019-03-31T21:39:40.800Z,4.17
2019-03-31T21:42:11.304Z,4.83
2019-03-31T21:44:41.713Z,4.60
2019-03-31T21:47:12.100Z,6.53
2019-03-31T21:49:42.908Z,5.27
2019-03-31T21:52:13.320Z,5.27
2019-03-31T21:54:43.774Z,5.17
2019-03-31T21:57:14.097Z,5.93
2019-03-31T21:59:44.647Z,5.33
2019-03-31T22:02:15.088Z,5.47
2019-03-31T22:04:46.548Z,6.07
2019-03-31T22:07:16.986Z,6.13
2019-03-31T22:09:47.516Z,6.60
2019-03-31T22:12:17.919Z,5.53
2019-03-31T22:14:48.531Z,5.17
2019-03-31T22:17:19.026Z,4.97
2019-03-31T22:19:49.493Z,4.67
2019-03-31T22:22:19.990Z,5.30
2019-03-31T22:24:50.456Z,5.37
2019-03-31T22:27:21.147Z,4.63
2019-03-31T22:29:52.780Z,5.47
2019-03-31T22:32:24.415Z,6.00
2019-03-31T22:34:56.197Z,6.53
2019-03-31T22:37:26.712Z,4.67
2019-03-31T22:40:03.231Z,6.30
2019-03-31T22:42:33.776Z,6.77
2019-03-31T22:45:05.109Z,6.60
2019-03-31T22:47:37.267Z,6.30
2019-03-31T22:50:07.982Z,6.70
2019-03-31T22:52:38.670Z,6.23
2019-03-31T22:55:09.079Z,5.03
2019-03-31T22:57:39.727Z,6.10
2019-03-31T23:00:17.464Z,6.43
2019-03-31T23:02:49.574Z,6.23
2019-03-31T23:05:20.089Z,6.90
2019-03-31T23:07:50.512Z,5.63
2019-03-31T23:10:22.192Z,6.13
2019-03-31T23:12:52.705Z,5.70
2019-03-31T23:15:23.529Z,5.67
2019-03-31T23:17:53.954Z,6.70
2019-03-31T23:20:24.767Z,6.93
2019-03-31T23:22:55.149Z,8.00
2019-03-31T23:25:25.891Z,5.77
2019-03-31T23:27:56.719Z,7.07
2019-03-31T23:30:27.187Z,6.00
2019-03-31T23:32:57.933Z,6.13
2019-03-31T23:35:30.196Z,5.83
2019-03-31T23:38:00.655Z,7.03
2019-03-31T23:40:31.500Z,5.90
2019-03-31T23:43:02.429Z,6.27
2019-03-31T23:45:33.984Z,7.00
2019-03-31T23:48:04.570Z,6.67
2019-03-31T23:50:35.069Z,5.50
2019-03-31T23:53:05.507Z,6.30
2019-03-31T23:55:36.318Z,5.60
2019-03-31T23:58:06.998Z,5.40
